Time;durP1;ratioP1;P1;durP2;ratioP2;P2;SDS_P1;SDS_P2;PMS_P1;PMS_P2;Temp;Humidity;BMP_temperature;BMP_pressure;BME280_temperature;BME280_humidity;BME280_pressure;Samples;Min_cycle;Max_cycle;Signal;HPM_P1;HPM_P2
2023/08/26 00:00:18;;;;;;;7.18;4.93;;;19.90;90.60;;;;;;5055932;28;20079;-69
2023/08/26 00:02:43;;;;;;;6.28;5.30;;;19.90;90.60;;;;;;5059573;28;20685;-71
2023/08/26 00:05:09;;;;;;;8.25;5.82;;;19.80;90.70;;;;;;5061539;28;20178;-70
2023/08/26 00:07:35;;;;;;;7.65;6.00;;;19.80;90.70;;;;;;5058963;28;20024;-70
2023/08/26 00:10:00;;;;;;;6.63;5.38;;;19.80;90.70;;;;;;5063299;28;20025;-70
2023/08/26 00:12:26;;;;;;;7.88;6.15;;;19.90;90.70;;;;;;5062875;28;20070;-71
2023/08/26 00:14:52;;;;;;;10.00;5.50;;;19.80;90.60;;;;;;5058672;28;20625;-70
2023/08/26 00:17:18;;;;;;;6.97;5.28;;;19.80;90.60;;;;;;5058651;28;20036;-70
2023/08/26 00:19:44;;;;;;;7.93;5.85;;;19.80;90.50;;;;;;5060152;28;20020;-70
2023/08/26 00:22:11;;;;;;;8.15;5.72;;;19.80;90.50;;;;;;5060890;28;20017;-70
2023/08/26 00:24:36;;;;;;;8.00;6.18;;;19.80;90.50;;;;;;5061268;28;20032;-71
2023/08/26 00:27:03;;;;;;;6.65;5.32;;;19.80;90.40;;;;;;5059651;28;20025;-70
2023/08/26 00:29:29;;;;;;;7.63;5.72;;;19.80;90.40;;;;;;5059219;28;20021;-70
2023/08/26 00:31:54;;;;;;;7.43;6.20;;;19.70;90.30;;;;;;5063009;28;20403;-71
2023/08/26 00:34:20;;;;;;;7.40;5.70;;;19.60;90.20;;;;;;5062550;28;20095;-70
2023/08/26 00:36:46;;;;;;;8.32;5.90;;;19.60;90.20;;;;;;5060718;28;20064;-70
2023/08/26 00:39:11;;;;;;;8.40;6.22;;;19.60;90.30;;;;;;5057925;28;20025;-70
2023/08/26 00:41:37;;;;;;;8.65;6.40;;;19.50;90.30;;;;;;5061471;28;20016;-71
2023/08/26 00:44:02;;;;;;;8.20;6.45;;;19.50;90.30;;;;;;5058812;28;20025;-71
2023/08/26 00:46:29;;;;;;;7.13;6.30;;;19.50;90.40;;;;;;5062689;28;20052;-70
2023/08/26 00:48:54;;;;;;;8.90;6.25;;;19.40;90.40;;;;;;5060684;28;20068;-71
2023/08/26 00:51:21;;;;;;;8.48;6.43;;;19.40;90.50;;;;;;5061905;28;20517;-71
2023/08/26 00:53:47;;;;;;;7.03;5.93;;;19.40;90.60;;;;;;5059239;28;20057;-69
2023/08/26 00:56:13;;;;;;;7.20;6.30;;;19.40;90.60;;;;;;5061601;28;20120;-70
2023/08/26 00:58:40;;;;;;;8.38;6.13;;;19.40;90.60;;;;;;5058654;28;20539;-70
2023/08/26 01:01:05;;;;;;;8.13;6.38;;;19.40;90.50;;;;;;5058553;28;20104;-70
2023/08/26 01:03:32;;;;;;;7.97;5.70;;;19.40;90.50;;;;;;5059414;28;20111;-70
2023/08/26 01:05:58;;;;;;;7.00;5.70;;;19.40;90.60;;;;;;5060849;28;20064;-70
2023/08/26 01:08:24;;;;;;;7.72;5.30;;;19.40;90.70;;;;;;5058930;28;20720;-71
2023/08/26 01:10:55;;;;;;;5.38;4.70;;;19.30;90.70;;;;;;5060213;28;20031;-70
2023/08/26 01:13:34;;;;;;;7.38;4.47;;;19.30;90.70;;;;;;5060428;28;20105;-71
2023/08/26 01:16:02;;;;;;;6.88;4.70;;;19.30;90.80;;;;;;5055307;28;20055;-71
2023/08/26 01:18:28;;;;;;;5.63;4.50;;;19.30;90.80;;;;;;5059092;28;20020;-71
2023/08/26 01:20:55;;;;;;;5.65;4.20;;;19.30;90.70;;;;;;5063075;28;20033;-71
2023/08/26 01:23:44;;;;;;;4.53;3.92;;;19.30;90.60;;;;;;5060079;28;20074;-70
2023/08/26 01:26:10;;;;;;;5.97;4.60;;;19.30;90.50;;;;;;5059555;28;20027;-69
2023/08/26 01:28:35;;;;;;;5.60;4.22;;;19.20;90.40;;;;;;5061347;28;20025;-69
2023/08/26 01:31:10;;;;;;;4.90;3.88;;;19.10;90.40;;;;;;5060844;28;20059;-69
2023/08/26 01:33:49;;;;;;;7.18;4.13;;;19.10;90.40;;;;;;5058707;28;20064;-68
2023/08/26 01:36:19;;;;;;;7.38;4.32;;;19.10;90.40;;;;;;5059515;28;20083;-69
2023/08/26 01:38:45;;;;;;;5.20;4.13;;;19.10;90.40;;;;;;5057083;28;20027;-69
2023/08/26 01:41:17;;;;;;;5.25;4.03;;;19.20;90.50;;;;;;5062868;28;20021;-68
2023/08/26 01:43:42;;;;;;;6.78;4.47;;;19.20;90.50;;;;;;5059678;28;20510;-68
2023/08/26 01:46:08;;;;;;;7.28;5.25;;;19.20;90.50;;;;;;5060326;28;20048;-69
2023/08/26 01:48:34;;;;;;;5.57;3.90;;;19.20;90.40;;;;;;5058046;28;20052;-69
2023/08/26 01:50:59;;;;;;;7.75;5.05;;;19.10;90.50;;;;;;5057972;28;20487;-69
2023/08/26 01:53:25;;;;;;;5.47;4.78;;;19.10;90.50;;;;;;5057655;28;20024;-70
2023/08/26 01:55:50;;;;;;;6.55;4.40;;;19.00;90.50;;;;;;5061002;28;20037;-69
2023/08/26 01:58:16;;;;;;;7.57;4.90;;;19.00;90.60;;;;;;5060599;28;20024;-69
2023/08/26 02:00:41;;;;;;;6.53;5.53;;;19.00;90.70;;;;;;5056378;28;20050;-69
2023/08/26 02:03:07;;;;;;;8.10;4.63;;;18.90;90.60;;;;;;5058543;28;20104;-69
2023/08/26 02:05:32;;;;;;;7.82;4.45;;;18.90;90.60;;;;;;5060236;28;20040;-69
2023/08/26 02:07:58;;;;;;;5.95;3.85;;;18.90;90.70;;;;;;5060133;28;20372;-68
2023/08/26 02:10:24;;;;;;;6.32;4.15;;;18.90;90.70;;;;;;5058489;28;20036;-69
2023/08/26 02:12:49;;;;;;;6.25;4.97;;;19.00;90.60;;;;;;5060920;28;20035;-70
2023/08/26 02:15:15;;;;;;;7.13;4.80;;;19.00;90.60;;;;;;5059037;28;20037;-69
2023/08/26 02:17:40;;;;;;;6.80;5.68;;;18.90;90.60;;;;;;5058061;28;20024;-70
2023/08/26 02:20:07;;;;;;;8.07;5.45;;;18.90;90.60;;;;;;5056474;28;20071;-70
2023/08/26 02:22:33;;;;;;;8.50;5.70;;;18.80;90.50;;;;;;5060108;28;20017;-70
2023/08/26 02:24:59;;;;;;;5.90;4.43;;;18.70;90.50;;;;;;5059662;28;20088;-70
2023/08/26 02:27:24;;;;;;;7.57;5.20;;;18.70;90.50;;;;;;5057676;28;20064;-70
2023/08/26 02:29:50;;;;;;;8.23;5.43;;;18.60;90.40;;;;;;5057623;28;20557;-70
2023/08/26 02:32:15;;;;;;;9.80;5.10;;;18.50;90.30;;;;;;5059172;28;20033;-71
2023/08/26 02:34:41;;;;;;;10.13;5.05;;;18.50;90.30;;;;;;5057365;28;20413;-70
2023/08/26 02:37:06;;;;;;;7.00;4.95;;;18.40;90.30;;;;;;5059012;28;20070;-70
2023/08/26 02:39:32;;;;;;;7.00;4.28;;;18.30;90.20;;;;;;5059465;28;20035;-73
2023/08/26 02:41:57;;;;;;;6.95;4.97;;;18.30;90.20;;;;;;5057895;28;20510;-70
2023/08/26 02:44:23;;;;;;;8.10;5.15;;;18.30;90.20;;;;;;5059454;28;20016;-71
2023/08/26 02:46:48;;;;;;;6.88;5.10;;;18.20;90.10;;;;;;5058573;28;20048;-69
2023/08/26 02:49:14;;;;;;;6.63;4.78;;;18.10;90.00;;;;;;5057919;28;20752;-69
2023/08/26 02:51:40;;;;;;;9.05;5.10;;;18.00;90.00;;;;;;5058419;28;20036;-70
2023/08/26 02:54:05;;;;;;;9.50;4.82;;;18.00;90.00;;;;;;5060310;28;20036;-69
2023/08/26 02:56:31;;;;;;;6.60;4.57;;;17.90;90.00;;;;;;5059928;28;20078;-69
2023/08/26 02:58:56;;;;;;;5.63;3.97;;;17.90;90.10;;;;;;5059204;28;20021;-70
2023/08/26 03:01:24;;;;;;;6.75;4.80;;;17.80;90.00;;;;;;5057549;28;20012;-70
2023/08/26 03:03:49;;;;;;;8.35;4.60;;;17.80;90.10;;;;;;5061765;28;20057;-70
2023/08/26 03:06:15;;;;;;;9.38;4.90;;;17.70;90.00;;;;;;5064280;28;20052;-70
2023/08/26 03:08:40;;;;;;;7.40;4.53;;;17.70;90.00;;;;;;5064311;28;20041;-69
2023/08/26 03:11:09;;;;;;;9.60;5.05;;;17.60;90.00;;;;;;5063480;28;20025;-70
2023/08/26 03:13:35;;;;;;;9.50;5.00;;;17.60;90.00;;;;;;5065463;28;20043;-69
2023/08/26 03:16:09;;;;;;;5.28;3.55;;;17.50;90.00;;;;;;5063863;28;20538;-69
2023/08/26 03:18:34;;;;;;;6.38;3.58;;;17.50;90.00;;;;;;5063385;28;20029;-69
2023/08/26 03:21:04;;;;;;;9.57;5.20;;;17.50;90.00;;;;;;5063617;28;20043;-69
2023/08/26 03:23:29;;;;;;;8.30;4.50;;;17.40;89.80;;;;;;5064496;28;20024;-70
2023/08/26 03:25:55;;;;;;;7.95;4.75;;;17.50;89.90;;;;;;5065689;28;20094;-69
2023/08/26 03:28:21;;;;;;;9.60;5.03;;;17.50;89.90;;;;;;5064432;28;20129;-69
2023/08/26 03:30:47;;;;;;;7.60;4.22;;;17.50;89.70;;;;;;5063788;28;20111;-70
2023/08/26 03:33:12;;;;;;;4.97;3.65;;;17.40;89.50;;;;;;5066478;28;20498;-69
2023/08/26 03:35:39;;;;;;;5.13;3.58;;;17.40;89.60;;;;;;5065875;28;20070;-69
2023/08/26 03:38:04;;;;;;;6.88;3.85;;;17.30;89.50;;;;;;5063703;28;20490;-69
2023/08/26 03:40:30;;;;;;;8.02;5.00;;;17.30;89.60;;;;;;5066879;28;20019;-69
2023/08/26 03:42:56;;;;;;;9.13;4.60;;;17.30;89.40;;;;;;5062117;28;20447;-69
2023/08/26 03:45:21;;;;;;;6.43;4.13;;;17.20;89.20;;;;;;5064845;28;20028;-70
2023/08/26 03:47:47;;;;;;;4.82;3.60;;;17.20;89.30;;;;;;5065521;28;20166;-70
2023/08/26 03:50:13;;;;;;;6.15;3.60;;;17.20;89.30;;;;;;5065772;28;20074;-69
2023/08/26 03:52:38;;;;;;;8.20;3.97;;;17.20;89.20;;;;;;5062911;28;20475;-69
2023/08/26 03:55:04;;;;;;;6.78;3.50;;;17.20;89.10;;;;;;5061723;28;20031;-69
2023/08/26 03:57:30;;;;;;;5.65;3.25;;;17.10;89.10;;;;;;5058496;28;20153;-69
2023/08/26 03:59:57;;;;;;;7.47;4.18;;;17.10;89.20;;;;;;5064287;28;20021;-69
2023/08/26 04:02:23;;;;;;;7.15;3.78;;;17.00;89.10;;;;;;5057758;28;20631;-69
2023/08/26 04:04:48;;;;;;;6.50;4.00;;;17.00;89.20;;;;;;5060270;28;20024;-70
2023/08/26 04:07:14;;;;;;;7.22;4.00;;;16.90;89.80;;;;;;5064281;28;20096;-69
2023/08/26 04:09:39;;;;;;;7.90;4.00;;;16.80;89.40;;;;;;5063787;28;20025;-69
2023/08/26 04:12:05;;;;;;;7.13;4.10;;;16.70;89.60;;;;;;5062358;28;20099;-69
2023/08/26 04:14:30;;;;;;;6.38;3.70;;;16.70;89.80;;;;;;5061262;28;20395;-69
2023/08/26 04:16:56;;;;;;;6.70;3.75;;;16.60;89.90;;;;;;5059373;28;20036;-70
2023/08/26 04:19:21;;;;;;;5.78;3.25;;;16.60;90.00;;;;;;5060398;28;20542;-70
2023/08/26 04:21:47;;;;;;;7.28;3.92;;;16.50;90.10;;;;;;5060780;28;20051;-69
2023/08/26 04:24:13;;;;;;;6.25;3.72;;;16.40;90.10;;;;;;5063282;28;20024;-69
2023/08/26 04:26:38;;;;;;;8.68;3.80;;;16.50;90.20;;;;;;5061158;28;20045;-69
2023/08/26 04:29:04;;;;;;;5.95;3.53;;;16.40;90.20;;;;;;5058392;28;20519;-70
2023/08/26 04:31:30;;;;;;;6.45;4.20;;;16.30;90.20;;;;;;5059924;28;20033;-70
2023/08/26 04:33:55;;;;;;;5.05;3.40;;;16.20;90.20;;;;;;5058798;28;20478;-69
2023/08/26 04:36:21;;;;;;;8.18;4.82;;;16.20;90.40;;;;;;5055836;28;20082;-69
2023/08/26 04:38:47;;;;;;;7.03;4.07;;;16.10;90.40;;;;;;5060333;28;20387;-69
2023/08/26 04:41:12;;;;;;;4.80;3.50;;;16.00;90.50;;;;;;5059157;28;20020;-69
2023/08/26 04:43:40;;;;;;;10.30;4.82;;;16.00;90.60;;;;;;5057788;28;20537;-70
2023/08/26 04:46:06;;;;;;;5.28;3.50;;;15.90;90.60;;;;;;5058678;28;20028;-70
2023/08/26 04:48:32;;;;;;;6.32;3.40;;;15.90;90.70;;;;;;5059109;28;20027;-70
2023/08/26 04:50:57;;;;;;;5.00;3.15;;;15.80;90.70;;;;;;5055352;28;20028;-70
2023/08/26 04:53:23;;;;;;;5.00;3.28;;;15.90;90.80;;;;;;5054482;28;20096;-69
2023/08/26 04:55:51;;;;;;;5.85;3.08;;;15.90;90.80;;;;;;5063325;28;20068;-69
2023/08/26 04:58:17;;;;;;;6.90;3.72;;;15.90;90.80;;;;;;5062291;28;20024;-69
2023/08/26 05:00:43;;;;;;;6.07;3.30;;;15.80;90.80;;;;;;5061634;28;20059;-69
2023/08/26 05:03:09;;;;;;;4.88;3.10;;;15.80;90.80;;;;;;5061032;28;20021;-69
2023/08/26 05:05:34;;;;;;;8.07;4.00;;;15.80;90.90;;;;;;5059856;28;20490;-70
2023/08/26 05:08:00;;;;;;;7.57;3.30;;;15.80;90.80;;;;;;5060555;28;20036;-70
2023/08/26 05:10:26;;;;;;;4.63;3.42;;;15.70;90.80;;;;;;5057904;28;20556;-70
2023/08/26 05:12:51;;;;;;;7.78;3.47;;;15.70;90.90;;;;;;5057735;28;20043;-70
2023/08/26 05:15:17;;;;;;;7.20;3.20;;;15.60;91.00;;;;;;5062319;28;20505;-70
2023/08/26 05:17:43;;;;;;;4.40;3.00;;;15.60;91.00;;;;;;5060247;28;20025;-69
2023/08/26 05:20:08;;;;;;;5.97;3.35;;;15.70;91.10;;;;;;5057293;28;20387;-69
2023/08/26 05:22:34;;;;;;;4.50;2.85;;;15.70;91.00;;;;;;5059142;28;20119;-69
2023/08/26 05:25:00;;;;;;;5.22;2.92;;;15.70;91.00;;;;;;5057929;28;20032;-69
2023/08/26 05:27:27;;;;;;;6.18;3.22;;;15.60;91.00;;;;;;5057068;28;20037;-69
2023/08/26 05:29:53;;;;;;;5.35;2.40;;;15.70;91.00;;;;;;5061075;28;20021;-69
2023/08/26 05:32:19;;;;;;;4.82;2.58;;;15.90;91.00;;;;;;5058929;28;20036;-70
2023/08/26 05:34:44;;;;;;;4.68;2.70;;;16.50;90.80;;;;;;5061148;28;20520;-69
2023/08/26 05:37:10;;;;;;;6.78;3.25;;;17.10;89.80;;;;;;5061504;28;20183;-69
2023/08/26 05:39:36;;;;;;;6.32;2.83;;;17.60;86.80;;;;;;5059134;28;20383;-69
2023/08/26 05:42:01;;;;;;;4.53;2.70;;;18.20;84.50;;;;;;5059815;28;20095;-69
2023/08/26 05:44:27;;;;;;;4.97;2.80;;;18.50;82.30;;;;;;5058559;28;20025;-69
2023/08/26 05:46:54;;;;;;;4.70;3.00;;;18.70;79.80;;;;;;5060485;28;20035;-69
2023/08/26 05:49:20;;;;;;;4.95;2.30;;;18.40;79.30;;;;;;5057482;28;20032;-69
2023/08/26 05:51:45;;;;;;;6.70;2.80;;;18.00;80.20;;;;;;5057712;28;20379;-69
2023/08/26 05:54:11;;;;;;;5.32;2.42;;;17.80;81.30;;;;;;5059420;28;20021;-69
2023/08/26 05:56:36;;;;;;;3.30;2.28;;;17.50;82.20;;;;;;5057190;28;20031;-69
2023/08/26 05:59:02;;;;;;;4.47;2.97;;;17.30;83.10;;;;;;5058005;28;20446;-69
2023/08/26 06:01:27;;;;;;;5.20;2.40;;;17.20;83.60;;;;;;5059202;28;20027;-69
2023/08/26 06:03:55;;;;;;;5.90;2.38;;;17.10;84.40;;;;;;5058625;28;20415;-69
2023/08/26 06:06:20;;;;;;;5.43;2.53;;;17.00;84.80;;;;;;5058115;28;20048;-70
2023/08/26 06:08:46;;;;;;;3.08;2.03;;;17.40;85.40;;;;;;5053003;28;20029;-68
2023/08/26 06:11:12;;;;;;;4.85;2.10;;;18.40;83.60;;;;;;5059496;28;20025;-68
2023/08/26 06:13:37;;;;;;;4.55;2.05;;;19.70;80.10;;;;;;5056058;28;20028;-69
2023/08/26 06:16:03;;;;;;;3.65;2.15;;;20.70;76.20;;;;;;5059526;28;20060;-69
2023/08/26 06:18:29;;;;;;;5.20;2.70;;;21.40;73.20;;;;;;5057018;28;20459;-70
2023/08/26 06:20:54;;;;;;;5.53;2.00;;;21.80;69.10;;;;;;5059622;28;20037;-70
2023/08/26 06:23:20;;;;;;;4.45;2.35;;;22.30;68.10;;;;;;5056927;28;20025;-70
2023/08/26 06:25:52;;;;;;;3.72;2.08;;;22.90;66.10;;;;;;5059819;28;20040;-70
2023/08/26 06:28:18;;;;;;;3.80;2.00;;;23.30;64.70;;;;;;5059246;28;20127;-70
2023/08/26 06:30:44;;;;;;;4.38;2.15;;;23.90;63.20;;;;;;5056921;28;20100;-70
2023/08/26 06:33:09;;;;;;;4.80;2.00;;;24.10;62.20;;;;;;5056337;28;20037;-70
2023/08/26 06:35:35;;;;;;;4.78;2.25;;;24.40;61.00;;;;;;5059172;28;20035;-70
2023/08/26 06:38:00;;;;;;;6.05;2.00;;;24.80;60.40;;;;;;5058831;28;20036;-70
2023/08/26 06:40:26;;;;;;;3.63;1.70;;;25.20;59.70;;;;;;5058710;28;20020;-69
2023/08/26 06:42:52;;;;;;;2.05;1.55;;;25.50;58.70;;;;;;5052075;28;20050;-69
2023/08/26 06:45:17;;;;;;;5.50;2.00;;;26.00;57.80;;;;;;5056075;28;20028;-69
2023/08/26 06:47:43;;;;;;;3.88;2.00;;;26.20;57.10;;;;;;5059015;28;20068;-68
2023/08/26 06:50:08;;;;;;;4.35;1.60;;;26.30;56.70;;;;;;5058993;28;20519;-69
2023/08/26 06:52:34;;;;;;;4.25;1.50;;;26.50;56.40;;;;;;5060419;28;20057;-69
2023/08/26 06:55:00;;;;;;;4.65;2.05;;;26.90;55.70;;;;;;5058652;28;20037;-70
2023/08/26 06:57:25;;;;;;;3.38;1.65;;;26.80;55.20;;;;;;5060957;28;20033;-69
2023/08/26 06:59:51;;;;;;;2.72;1.83;;;27.00;54.70;;;;;;5055908;28;20029;-69
2023/08/26 07:02:16;;;;;;;4.35;2.10;;;26.90;53.90;;;;;;5052580;28;20025;-69
2023/08/26 07:04:44;;;;;;;4.05;1.70;;;27.20;53.90;;;;;;5058076;28;20021;-69
2023/08/26 07:07:11;;;;;;;3.85;1.70;;;27.40;54.00;;;;;;5055671;28;20203;-69
2023/08/26 07:09:37;;;;;;;4.00;1.90;;;27.60;53.80;;;;;;5060174;28;20531;-70
2023/08/26 07:12:03;;;;;;;4.55;1.83;;;27.50;52.50;;;;;;5057996;28;20016;-70
2023/08/26 07:14:29;;;;;;;7.22;2.08;;;27.60;52.40;;;;;;5059790;28;20020;-70
2023/08/26 07:16:55;;;;;;;1.88;1.58;;;27.40;52.50;;;;;;5053592;28;21860;-69
2023/08/26 07:19:20;;;;;;;2.60;1.55;;;27.70;52.60;;;;;;5055510;28;20090;-69
2023/08/26 07:21:46;;;;;;;5.60;1.60;;;28.10;52.40;;;;;;5057259;28;20035;-69
2023/08/26 07:24:11;;;;;;;4.57;2.00;;;28.30;51.50;;;;;;5056794;28;20029;-69
2023/08/26 07:26:37;;;;;;;3.35;1.75;;;28.30;51.30;;;;;;5058205;28;20105;-69
2023/08/26 07:29:03;;;;;;;4.38;1.90;;;28.00;50.90;;;;;;5058765;28;20040;-70
2023/08/26 07:31:28;;;;;;;3.42;2.10;;;28.40;51.90;;;;;;5057521;28;20032;-70
2023/08/26 07:33:55;;;;;;;3.90;1.92;;;28.20;49.90;;;;;;5058643;28;20095;-70
2023/08/26 07:36:20;;;;;;;3.45;1.60;;;28.50;50.50;;;;;;5059020;28;20036;-69
2023/08/26 07:38:47;;;;;;;2.50;1.80;;;28.50;50.10;;;;;;5058090;28;20093;-69
2023/08/26 07:41:12;;;;;;;4.97;2.20;;;28.10;49.90;;;;;;5058933;28;20052;-69
2023/08/26 07:43:38;;;;;;;5.88;1.95;;;27.80;50.10;;;;;;5055564;28;20063;-69
2023/08/26 07:46:04;;;;;;;3.15;2.10;;;28.20;50.50;;;;;;5055397;28;20487;-69
2023/08/26 07:48:30;;;;;;;3.83;1.90;;;28.30;50.00;;;;;;5057890;28;20024;-69
2023/08/26 07:50:55;;;;;;;2.30;1.70;;;28.40;49.70;;;;;;5063855;28;20120;-69
2023/08/26 07:53:21;;;;;;;5.43;2.40;;;28.30;50.00;;;;;;5055004;28;20457;-69
2023/08/26 07:55:47;;;;;;;4.15;1.70;;;26.30;51.20;;;;;;5059267;28;21575;-69
2023/08/26 07:58:12;;;;;;;5.82;2.10;;;24.60;54.50;;;;;;5058005;28;20029;-69
2023/08/26 08:00:38;;;;;;;3.60;1.73;;;24.00;56.70;;;;;;5061595;28;20487;-69
2023/08/26 08:03:04;;;;;;;4.78;1.80;;;23.50;57.90;;;;;;5062898;28;20039;-69
2023/08/26 08:05:29;;;;;;;7.20;1.98;;;22.90;59.60;;;;;;5056919;28;20120;-69
2023/08/26 08:07:55;;;;;;;6.38;2.15;;;22.40;60.90;;;;;;5061249;28;20039;-69
2023/08/26 08:10:20;;;;;;;4.68;1.77;;;21.90;62.20;;;;;;5059172;28;20032;-69
2023/08/26 08:12:46;;;;;;;3.38;1.95;;;21.70;63.50;;;;;;5059974;28;20168;-69
2023/08/26 08:15:11;;;;;;;2.88;1.58;;;21.50;64.40;;;;;;5059430;28;20036;-68
2023/08/26 08:17:37;;;;;;;4.85;1.77;;;21.50;65.20;;;;;;5055219;28;20017;-69
2023/08/26 08:20:03;;;;;;;3.70;1.55;;;21.90;65.10;;;;;;5064036;28;20108;-69
2023/08/26 08:22:36;;;;;;;2.65;1.65;;;21.90;64.70;;;;;;5058778;28;20100;-69
2023/08/26 08:25:03;;;;;;;3.97;1.90;;;22.10;64.80;;;;;;5060467;28;20024;-69
2023/08/26 08:27:30;;;;;;;5.18;1.98;;;23.30;62.70;;;;;;5061260;28;20100;-69
2023/08/26 08:29:57;;;;;;;4.80;2.00;;;24.40;60.40;;;;;;5060753;28;20020;-69
2023/08/26 08:32:22;;;;;;;5.25;2.30;;;24.70;58.20;;;;;;5058207;28;20033;-69
2023/08/26 08:34:48;;;;;;;5.78;2.30;;;23.60;59.70;;;;;;5060463;28;20456;-69
2023/08/26 08:37:14;;;;;;;3.25;1.60;;;22.90;61.40;;;;;;5061642;28;20037;-69
2023/08/26 08:39:39;;;;;;;3.47;1.60;;;23.60;61.80;;;;;;5056493;28;20100;-69
2023/08/26 08:42:08;;;;;;;4.80;1.80;;;24.40;60.60;;;;;;5060599;28;20059;-70
2023/08/26 08:44:40;;;;;;;2.85;1.40;;;24.90;60.00;;;;;;5058982;28;20021;-70
2023/08/26 08:47:06;;;;;;;3.47;1.70;;;24.80;60.00;;;;;;5058386;28;20025;-71
2023/08/26 08:49:33;;;;;;;2.88;1.40;;;24.50;60.20;;;;;;5059871;28;20040;-71
2023/08/26 08:52:00;;;;;;;2.63;1.65;;;24.20;60.90;;;;;;5056617;28;20040;-71
2023/08/26 08:54:27;;;;;;;4.30;1.50;;;23.30;61.60;;;;;;5051948;28;20119;-71
2023/08/26 08:56:54;;;;;;;3.13;1.50;;;23.00;63.40;;;;;;5050073;28;20621;-70
2023/08/26 08:59:20;;;;;;;2.17;1.40;;;23.00;64.00;;;;;;5053511;28;20039;-70
2023/08/26 09:01:46;;;;;;;4.28;1.70;;;22.80;64.10;;;;;;5051021;28;20023;-69
2023/08/26 09:04:11;;;;;;;2.75;1.48;;;22.60;64.40;;;;;;5054109;28;20020;-69
2023/08/26 09:06:38;;;;;;;3.88;1.80;;;22.50;65.00;;;;;;5055976;28;20079;-69
2023/08/26 09:09:10;;;;;;;4.43;2.08;;;22.30;64.90;;;;;;5056113;28;20024;-69
2023/08/26 09:11:39;;;;;;;8.23;3.17;;;22.20;64.50;;;;;;5058811;28;20085;-69
2023/08/26 09:14:08;;;;;;;5.15;2.13;;;21.90;65.00;;;;;;5058516;28;20032;-69
2023/08/26 09:16:35;;;;;;;4.30;1.80;;;21.60;65.10;;;;;;5056360;28;20529;-69
2023/08/26 09:19:03;;;;;;;2.28;1.50;;;21.50;65.80;;;;;;5058410;28;20020;-69
2023/08/26 09:21:28;;;;;;;5.45;2.05;;;21.60;66.40;;;;;;5057672;28;20021;-70
2023/08/26 09:23:54;;;;;;;1.70;1.20;;;21.70;66.50;;;;;;5058783;28;20028;-69
2023/08/26 09:26:23;;;;;;;2.13;1.45;;;21.70;66.50;;;;;;5055993;28;20429;-69
2023/08/26 09:28:50;;;;;;;4.72;1.73;;;21.80;66.40;;;;;;5058900;28;20052;-69
2023/08/26 09:31:16;;;;;;;5.00;1.48;;;21.80;66.40;;;;;;5059280;28;20609;-69
2023/08/26 09:33:42;;;;;;;3.33;1.40;;;21.80;66.50;;;;;;5061161;28;20451;-68
2023/08/26 09:36:09;;;;;;;3.92;1.30;;;21.80;66.70;;;;;;5057052;28;20086;-69
2023/08/26 09:38:44;;;;;;;3.25;1.70;;;21.60;66.80;;;;;;5064001;28;20020;-69
2023/08/26 09:41:09;;;;;;;2.42;1.50;;;21.40;66.70;;;;;;5065156;28;20039;-69
2023/08/26 09:43:36;;;;;;;2.15;1.30;;;21.40;66.90;;;;;;5058180;28;20032;-69
2023/08/26 09:46:03;;;;;;;3.42;1.40;;;21.40;67.20;;;;;;5062016;28;20438;-70
2023/08/26 09:48:28;;;;;;;3.95;1.25;;;21.50;67.00;;;;;;5060059;28;20140;-69
2023/08/26 09:50:54;;;;;;;3.05;1.50;;;21.50;67.10;;;;;;5057616;28;20221;-69
2023/08/26 09:53:30;;;;;;;3.20;1.40;;;21.50;66.90;;;;;;5060796;28;20031;-69
2023/08/26 09:55:59;;;;;;;2.92;1.20;;;21.30;66.50;;;;;;5060251;28;20511;-69
2023/08/26 09:58:26;;;;;;;3.35;1.30;;;21.10;66.80;;;;;;5062881;28;20086;-69
2023/08/26 10:00:54;;;;;;;2.45;1.13;;;21.10;67.40;;;;;;5060720;28;20082;-69
2023/08/26 10:03:24;;;;;;;3.00;1.20;;;21.10;67.70;;;;;;5063790;28;20518;-69
2023/08/26 10:05:53;;;;;;;3.72;1.20;;;21.10;68.00;;;;;;5061004;28;20031;-69
2023/08/26 10:08:21;;;;;;;2.20;1.05;;;21.00;68.00;;;;;;5061100;28;20029;-69
2023/08/26 10:10:52;;;;;;;3.00;1.15;;;21.10;68.20;;;;;;5062045;28;20086;-68
2023/08/26 10:13:24;;;;;;;2.27;1.17;;;21.10;68.10;;;;;;5063331;28;20074;-69
2023/08/26 10:15:52;;;;;;;3.33;1.20;;;21.20;68.30;;;;;;5062169;28;20290;-69
2023/08/26 10:18:36;;;;;;;2.42;1.40;;;21.30;68.00;;;;;;5064486;28;20036;-69
2023/08/26 10:21:03;;;;;;;3.47;1.48;;;21.50;67.70;;;;;;5061410;28;20062;-69
2023/08/26 10:23:29;;;;;;;4.47;1.58;;;21.60;67.30;;;;;;5061036;28;20022;-68
2023/08/26 10:25:56;;;;;;;3.33;1.27;;;21.70;67.00;;;;;;5065362;28;20040;-69
2023/08/26 10:28:23;;;;;;;5.10;1.85;;;21.80;66.90;;;;;;5059251;28;20098;-68
2023/08/26 10:30:50;;;;;;;2.83;1.30;;;21.90;66.00;;;;;;5063562;28;20028;-69
2023/08/26 10:33:18;;;;;;;3.45;1.23;;;21.80;65.80;;;;;;5059545;28;20021;-69
2023/08/26 10:36:11;;;;;;;2.45;1.20;;;21.90;66.10;;;;;;5062012;28;20035;-69
2023/08/26 10:38:39;;;;;;;2.90;1.13;;;22.00;66.10;;;;;;5061522;28;20021;-69
2023/08/26 10:41:11;;;;;;;4.22;1.17;;;22.10;65.90;;;;;;5064137;28;20394;-69
2023/08/26 10:43:37;;;;;;;1.73;1.05;;;22.30;65.50;;;;;;5061758;28;20032;-69
2023/08/26 10:46:03;;;;;;;2.42;1.17;;;22.50;65.20;;;;;;5062390;28;20126;-69
2023/08/26 10:48:29;;;;;;;2.40;1.02;;;22.50;64.50;;;;;;5061563;28;20724;-69
2023/08/26 10:51:01;;;;;;;3.42;1.50;;;22.50;64.10;;;;;;5062015;28;20032;-69
2023/08/26 10:53:27;;;;;;;3.60;1.50;;;22.60;64.00;;;;;;5056474;28;20665;-69
2023/08/26 10:56:10;;;;;;;2.72;1.25;;;22.70;63.70;;;;;;5060104;28;20044;-69
2023/08/26 10:58:46;;;;;;;1.98;1.17;;;22.80;63.80;;;;;;5059494;28;20079;-69
2023/08/26 11:01:12;;;;;;;3.90;1.50;;;22.90;63.70;;;;;;5059215;28;20020;-69
2023/08/26 11:03:38;;;;;;;3.05;1.55;;;23.00;63.40;;;;;;5055706;28;20029;-69
2023/08/26 11:06:06;;;;;;;2.63;1.30;;;22.90;62.90;;;;;;5059318;28;20044;-69
2023/08/26 11:08:32;;;;;;;3.20;1.20;;;23.00;63.00;;;;;;5059214;28;20050;-69
2023/08/26 11:10:58;;;;;;;1.52;1.27;;;23.00;63.60;;;;;;5061048;28;20542;-69
2023/08/26 11:13:23;;;;;;;3.63;1.50;;;22.90;62.40;;;;;;5058108;28;20037;-69
2023/08/26 11:15:50;;;;;;;3.97;1.90;;;23.00;62.50;;;;;;5056587;28;20033;-70
2023/08/26 11:18:16;;;;;;;2.83;1.10;;;22.90;61.00;;;;;;5058396;28;20027;-69
2023/08/26 11:20:45;;;;;;;2.08;1.20;;;22.90;61.40;;;;;;5058184;28;21737;-69
2023/08/26 11:23:11;;;;;;;2.08;1.00;;;22.90;61.00;;;;;;5060726;28;20024;-69
2023/08/26 11:25:37;;;;;;;2.30;0.90;;;23.10;61.50;;;;;;5062461;28;20028;-69
2023/08/26 11:28:14;;;;;;;1.73;0.90;;;23.20;61.40;;;;;;5062296;28;20055;-69
2023/08/26 11:30:41;;;;;;;2.65;0.98;;;23.30;61.50;;;;;;5059701;28;20128;-69
2023/08/26 11:33:17;;;;;;;2.88;1.13;;;23.40;60.40;;;;;;5059575;28;20230;-69
2023/08/26 11:35:46;;;;;;;2.45;1.13;;;23.40;60.30;;;;;;5060100;28;20037;-68
2023/08/26 11:38:13;;;;;;;2.97;1.10;;;23.40;60.00;;;;;;5060615;28;20041;-69
2023/08/26 11:40:40;;;;;;;2.42;1.15;;;23.60;60.30;;;;;;5061807;28;20021;-69
2023/08/26 11:43:10;;;;;;;2.67;0.90;;;23.70;59.40;;;;;;5063210;28;20028;-69
2023/08/26 11:45:38;;;;;;;3.85;0.95;;;23.60;58.00;;;;;;5061907;28;20036;-69
2023/08/26 11:48:04;;;;;;;2.28;1.02;;;23.50;58.70;;;;;;5061968;28;20020;-69
2023/08/26 11:50:33;;;;;;;2.38;1.30;;;23.60;59.10;;;;;;5060966;28;20026;-69
2023/08/26 11:53:04;;;;;;;1.67;1.10;;;23.60;59.10;;;;;;5064078;28;20040;-68
2023/08/26 11:55:32;;;;;;;1.73;0.93;;;23.60;58.90;;;;;;5065489;28;20024;-69
2023/08/26 11:57:59;;;;;;;1.20;0.80;;;23.70;58.90;;;;;;5065639;28;20032;-69
2023/08/26 12:00:25;;;;;;;1.63;1.10;;;23.70;58.80;;;;;;5066413;28;20159;-69
2023/08/26 12:02:52;;;;;;;2.17;1.00;;;23.80;58.90;;;;;;5060863;28;20036;-69
2023/08/26 12:05:19;;;;;;;1.85;0.90;;;23.80;58.30;;;;;;5061353;28;20130;-69
2023/08/26 12:07:46;;;;;;;2.45;0.90;;;23.70;58.00;;;;;;5062087;28;20675;-69
2023/08/26 12:10:13;;;;;;;2.00;1.00;;;23.60;57.70;;;;;;5063856;28;20571;-69
2023/08/26 12:12:40;;;;;;;2.25;0.93;;;23.60;58.90;;;;;;5059693;28;20024;-69
2023/08/26 12:15:07;;;;;;;1.48;0.77;;;23.60;57.70;;;;;;5062298;28;20503;-69
2023/08/26 12:17:47;;;;;;;2.10;1.20;;;23.60;57.90;;;;;;5059336;28;20107;-68
2023/08/26 12:20:23;;;;;;;2.05;0.75;;;23.70;57.30;;;;;;5061122;28;20053;-69
2023/08/26 12:22:49;;;;;;;1.27;0.70;;;23.80;57.40;;;;;;5063406;28;20064;-70
2023/08/26 12:25:25;;;;;;;0.82;0.80;;;24.00;57.40;;;;;;5061062;28;20079;-69
2023/08/26 12:27:51;;;;;;;2.65;1.00;;;24.00;57.30;;;;;;5059944;28;20036;-69
2023/08/26 12:30:17;;;;;;;1.05;0.70;;;23.90;57.00;;;;;;5061607;28;20017;-69
2023/08/26 12:32:42;;;;;;;1.60;0.75;;;23.90;57.30;;;;;;5062696;28;20640;-69
2023/08/26 12:35:08;;;;;;;1.60;0.85;;;23.90;57.10;;;;;;5063763;28;20029;-69
2023/08/26 12:37:35;;;;;;;1.95;0.80;;;24.00;57.00;;;;;;5063487;28;20021;-70
2023/08/26 12:40:04;;;;;;;1.27;0.88;;;24.10;57.00;;;;;;5058367;28;20017;-69
2023/08/26 12:42:33;;;;;;;1.63;0.90;;;24.20;56.30;;;;;;5059940;28;20017;-69